createdAt,value
2023-05-10T00:00:10.322Z,77.97
2023-05-10T00:01:13.570Z,79.21
2023-05-10T00:02:15.765Z,80.56
2023-05-10T00:03:19.010Z,79.85
2023-05-10T00:04:22.605Z,79.64
2023-05-10T00:05:25.786Z,79.21
2023-05-10T00:06:28.018Z,80.13
2023-05-10T00:07:31.366Z,79.48
2023-05-10T00:08:33.537Z,78.68
2023-05-10T00:09:38.267Z,77.86
2023-05-10T00:10:41.583Z,78.04
2023-05-10T00:11:44.985Z,78.39
2023-05-10T00:12:48.299Z,78.98
2023-05-10T00:13:51.736Z,78.70
2023-05-10T00:14:54.093Z,78.95
2023-05-10T00:15:57.511Z,78.39
2023-05-10T00:16:59.948Z,78.05
2023-05-10T00:18:03.328Z,78.15
2023-05-10T00:19:05.573Z,79.23
2023-05-10T00:20:09.569Z,79.16
2023-05-10T00:21:14.185Z,80.63
2023-05-10T00:22:17.400Z,79.85
2023-05-10T00:23:19.708Z,79.73
2023-05-10T00:24:22.930Z,79.92
2023-05-10T00:25:26.648Z,80.40
2023-05-10T00:26:29.998Z,80.56
2023-05-10T00:27:32.377Z,81.91
2023-05-10T00:28:35.522Z,81.16
2023-05-10T00:29:37.666Z,81.47
2023-05-10T00:30:40.926Z,82.10
2023-05-10T00:31:43.635Z,81.64
2023-05-10T00:32:46.921Z,81.83
2023-05-10T00:33:49.747Z,79.73
2023-05-10T00:34:53.274Z,79.86
2023-05-10T00:35:57.729Z,80.30
2023-05-10T00:37:02.606Z,80.41
2023-05-10T00:38:07.525Z,80.29
2023-05-10T00:39:14.151Z,78.53
2023-05-10T00:40:17.395Z,78.96
2023-05-10T00:41:24.002Z,80.20
2023-05-10T00:42:26.211Z,79.81
2023-05-10T00:43:29.527Z,79.75
2023-05-10T00:44:32.085Z,80.25
2023-05-10T00:45:36.646Z,81.56
2023-05-10T00:46:39.002Z,81.15
2023-05-10T00:47:42.795Z,80.96
2023-05-10T00:48:46.655Z,81.35
2023-05-10T00:49:50.087Z,80.42
2023-05-10T00:50:52.619Z,80.77
2023-05-10T00:51:56.255Z,81.57
2023-05-10T00:52:59.330Z,80.66
2023-05-10T00:54:02.719Z,80.37
2023-05-10T00:55:05.936Z,80.36
2023-05-10T00:56:09.879Z,81.73
2023-05-10T00:57:13.548Z,80.64
2023-05-10T00:58:17.187Z,80.83
2023-05-10T00:59:19.977Z,80.61
2023-05-10T01:00:23.330Z,81.66
2023-05-10T01:01:26.460Z,81.71
2023-05-10T01:02:29.983Z,81.90
2023-05-10T01:03:33.522Z,81.88
2023-05-10T01:04:38.213Z,84.49
2023-05-10T01:05:40.497Z,83.04
2023-05-10T01:06:44.464Z,81.98
2023-05-10T01:07:49.151Z,83.30
2023-05-10T01:08:52.668Z,82.24
2023-05-10T01:09:55.214Z,83.13
2023-05-10T01:10:59.034Z,82.82
2023-05-10T01:12:02.974Z,81.81
2023-05-10T01:13:08.218Z,82.26
2023-05-10T01:14:11.015Z,82.52
2023-05-10T01:15:16.387Z,82.71
2023-05-10T01:16:19.166Z,81.99
2023-05-10T01:17:24.175Z,81.59
2023-05-10T01:18:28.071Z,80.74
2023-05-10T01:19:35.991Z,80.42
2023-05-10T01:20:44.606Z,79.64
2023-05-10T01:22:02.827Z,80.31
2023-05-10T01:23:36.832Z,80.21
2023-05-10T01:25:11.155Z,81.24
2023-05-10T01:26:34.766Z,82.05
2023-05-10T01:28:11.286Z,80.79
2023-05-10T01:29:30.425Z,80.84
2023-05-10T01:31:06.132Z,82.56
2023-05-10T01:32:36.475Z,83.63
2023-05-10T01:33:44.490Z,84.25
2023-05-10T01:34:55.860Z,83.54
2023-05-10T01:36:07.926Z,82.13
2023-05-10T01:37:15.021Z,81.45
2023-05-10T01:38:23.489Z,79.92
2023-05-10T01:39:29.819Z,78.67
2023-05-10T01:40:38.916Z,78.96
2023-05-10T01:41:49.317Z,78.82
2023-05-10T01:42:59.496Z,79.66
2023-05-10T01:44:09.588Z,80.98
2023-05-10T01:45:21.271Z,80.27
2023-05-10T01:46:30.006Z,78.90
2023-05-10T01:47:46.881Z,80.46
2023-05-10T01:48:52.718Z,78.31
2023-05-10T01:49:57.665Z,79.86
2023-05-10T01:51:00.138Z,80.66
2023-05-10T01:52:10.796Z,79.39
2023-05-10T01:53:14.251Z,80.30
2023-05-10T01:54:21.680Z,79.11
2023-05-10T01:55:28.711Z,79.41
2023-05-10T01:56:34.668Z,78.53
2023-05-10T01:57:40.638Z,79.69
2023-05-10T01:58:47.483Z,78.86
2023-05-10T01:59:52.019Z,79.50
2023-05-10T02:01:01.353Z,79.01
2023-05-10T02:02:05.667Z,80.46
2023-05-10T02:03:12.545Z,78.84
2023-05-10T02:04:18.017Z,78.50
2023-05-10T02:05:23.208Z,78.05
2023-05-10T02:06:26.508Z,78.43
2023-05-10T02:07:31.084Z,79.66
2023-05-10T02:08:36.788Z,79.08
2023-05-10T02:09:41.157Z,79.46
2023-05-10T02:10:46.101Z,78.68
2023-05-10T02:11:51.383Z,77.82
2023-05-10T02:12:56.351Z,78.43
2023-05-10T02:14:01.102Z,78.36
2023-05-10T02:15:07.012Z,77.48
2023-05-10T02:16:12.605Z,76.21
2023-05-10T02:17:15.521Z,75.86
2023-05-10T02:18:20.957Z,76.93
2023-05-10T02:19:24.721Z,77.98
2023-05-10T02:20:29.292Z,75.58
2023-05-10T02:21:33.793Z,76.41
2023-05-10T02:22:39.182Z,75.31
2023-05-10T02:23:41.762Z,75.53
2023-05-10T02:24:47.646Z,76.25
2023-05-10T02:25:50.724Z,76.39
2023-05-10T02:27:00.582Z,75.77
2023-05-10T02:28:08.556Z,76.29
2023-05-10T02:29:16.251Z,75.47
2023-05-10T02:30:20.002Z,75.86
2023-05-10T02:31:24.493Z,76.72
2023-05-10T02:32:28.531Z,76.04
2023-05-10T02:33:35.839Z,75.86
2023-05-10T02:34:39.488Z,74.86
2023-05-10T02:35:43.732Z,74.41
2023-05-10T02:36:46.113Z,74.75
2023-05-10T02:37:50.038Z,75.26
2023-05-10T02:38:54.431Z,75.15
2023-05-10T02:39:58.862Z,73.00
2023-05-10T02:41:02.819Z,73.78
2023-05-10T02:42:07.510Z,72.88
2023-05-10T02:43:14.455Z,73.47
2023-05-10T02:44:21.079Z,73.14
2023-05-10T02:45:27.362Z,72.68
2023-05-10T02:46:31.033Z,72.67
2023-05-10T02:47:33.683Z,73.55
2023-05-10T02:48:39.408Z,74.18
2023-05-10T02:49:41.888Z,75.70
2023-05-10T02:50:47.812Z,75.97
2023-05-10T02:51:57.855Z,74.68
2023-05-10T02:53:06.085Z,73.97
2023-05-10T02:54:13.213Z,73.77
2023-05-10T02:55:18.633Z,73.86
2023-05-10T02:56:26.912Z,75.70
2023-05-10T02:57:34.876Z,75.02
2023-05-10T02:58:37.813Z,76.07
2023-05-10T02:59:41.306Z,75.25
2023-05-10T03:00:43.540Z,74.70
2023-05-10T03:01:46.851Z,74.22
2023-05-10T03:02:49.423Z,73.71
2023-05-10T03:03:54.088Z,74.47
2023-05-10T03:04:56.823Z,75.41
2023-05-10T03:06:00.331Z,75.77
2023-05-10T03:07:03.110Z,74.93
2023-05-10T03:08:07.936Z,74.65
2023-05-10T03:09:13.329Z,74.98
2023-05-10T03:10:17.082Z,74.57
2023-05-10T03:11:33.370Z,74.10
2023-05-10T03:12:55.320Z,75.22
2023-05-10T03:14:09.091Z,75.96
2023-05-10T03:15:20.605Z,76.40
2023-05-10T03:16:28.556Z,75.64
2023-05-10T03:17:38.359Z,74.33
2023-05-10T03:18:45.264Z,73.53
2023-05-10T03:19:55.376Z,71.78
2023-05-10T03:21:00.617Z,70.83
2023-05-10T03:22:12.360Z,70.22
2023-05-10T03:23:22.577Z,71.51
2023-05-10T03:24:29.623Z,71.00
2023-05-10T03:25:32.908Z,70.92
2023-05-10T03:26:39.451Z,70.79
2023-05-10T03:27:44.510Z,70.96
2023-05-10T03:28:49.884Z,71.59
2023-05-10T03:29:54.094Z,72.73
2023-05-10T03:30:58.965Z,73.74
2023-05-10T03:32:01.631Z,74.06
2023-05-10T03:33:07.474Z,73.18
2023-05-10T03:34:09.831Z,72.37
2023-05-10T03:35:15.669Z,71.53
2023-05-10T03:36:18.946Z,71.06
2023-05-10T03:37:21.256Z,71.26
2023-05-10T03:38:24.851Z,72.37
2023-05-10T03:39:27.000Z,71.91
2023-05-10T03:40:32.876Z,71.51
2023-05-10T03:41:35.663Z,71.93
2023-05-10T03:42:38.943Z,72.68
2023-05-10T03:43:41.910Z,72.66
2023-05-10T03:44:45.079Z,73.09
2023-05-10T03:45:47.872Z,73.54
2023-05-10T03:46:51.094Z,73.06
2023-05-10T03:47:53.663Z,74.11
2023-05-10T03:48:56.891Z,75.07
2023-05-10T03:49:59.063Z,75.15
2023-05-10T03:51:04.264Z,73.89
2023-05-10T03:52:06.510Z,74.26
2023-05-10T03:53:09.667Z,73.95
2023-05-10T03:54:11.794Z,74.79
2023-05-10T03:55:15.222Z,75.74
2023-05-10T03:56:17.352Z,76.07
2023-05-10T03:57:20.722Z,76.31
2023-05-10T03:58:23.053Z,77.34
2023-05-10T03:59:26.235Z,77.46
2023-05-10T04:00:28.399Z,76.96
2023-05-10T04:01:31.536Z,76.66
2023-05-10T04:02:34.021Z,75.89
2023-05-10T04:03:37.897Z,77.27
2023-05-10T04:04:40.223Z,77.25
2023-05-10T04:05:43.396Z,77.25
2023-05-10T04:06:46.973Z,76.50
2023-05-10T04:07:50.919Z,75.92
2023-05-10T04:08:53.055Z,73.89
2023-05-10T04:09:56.370Z,73.51
2023-05-10T04:11:07.009Z,73.29
2023-05-10T04:12:11.061Z,74.67
2023-05-10T04:13:13.393Z,74.53
2023-05-10T04:14:16.782Z,75.51
2023-05-10T04:15:19.008Z,75.93
2023-05-10T04:16:22.201Z,77.34
2023-05-10T04:17:24.359Z,76.50
2023-05-10T04:18:27.550Z,74.44
2023-05-10T04:19:31.340Z,74.44
2023-05-10T04:20:34.977Z,74.15
2023-05-10T04:21:37.872Z,74.36
2023-05-10T04:22:42.698Z,74.86
2023-05-10T04:23:45.007Z,74.74
2023-05-10T04:24:48.162Z,74.31
2023-05-10T04:25:50.322Z,73.29
2023-05-10T04:26:54.335Z,73.46
2023-05-10T04:27:57.647Z,72.93
2023-05-10T04:29:00.855Z,72.89
2023-05-10T04:30:03.642Z,73.32
2023-05-10T04:31:07.551Z,73.38
2023-05-10T04:32:11.154Z,73.52
2023-05-10T04:33:15.442Z,72.75
2023-05-10T04:34:17.582Z,72.14
2023-05-10T04:35:20.781Z,73.05
2023-05-10T04:36:22.920Z,73.58
2023-05-10T04:37:26.117Z,73.50
2023-05-10T04:38:30.486Z,72.86
2023-05-10T04:39:33.657Z,72.68
2023-05-10T04:40:35.928Z,72.04
2023-05-10T04:41:40.434Z,72.64
2023-05-10T04:42:42.780Z,72.80
2023-05-10T04:43:46.187Z,72.70
2023-05-10T04:44:48.447Z,73.43
2023-05-10T04:45:51.767Z,73.39
2023-05-10T04:46:54.971Z,73.13
2023-05-10T04:47:57.221Z,73.30
2023-05-10T04:49:00.710Z,72.80
2023-05-10T04:50:03.099Z,73.54
2023-05-10T04:51:07.585Z,73.66
2023-05-10T04:52:09.781Z,73.91
2023-05-10T04:53:14.633Z,74.00
2023-05-10T04:54:19.503Z,73.11
2023-05-10T04:55:22.671Z,71.95
2023-05-10T04:56:24.856Z,72.23
2023-05-10T04:57:28.179Z,71.84
2023-05-10T04:58:30.360Z,72.97
2023-05-10T04:59:33.486Z,72.39
2023-05-10T05:00:35.698Z,73.17
2023-05-10T05:01:38.960Z,74.14
2023-05-10T05:02:44.771Z,75.16
2023-05-10T05:03:48.386Z,75.89
2023-05-10T05:04:50.696Z,75.60
2023-05-10T05:05:53.829Z,76.50
2023-05-10T05:06:56.358Z,76.88
2023-05-10T05:07:59.504Z,78.07
2023-05-10T05:09:01.631Z,78.47
2023-05-10T05:10:07.198Z,78.46
2023-05-10T05:11:10.561Z,78.87
2023-05-10T05:12:15.310Z,79.24
2023-05-10T05:13:18.520Z,78.47
2023-05-10T05:14:21.908Z,78.54
2023-05-10T05:15:25.120Z,78.60
2023-05-10T05:16:28.381Z,78.31
2023-05-10T05:17:33.530Z,77.66
2023-05-10T05:18:35.875Z,78.53
2023-05-10T05:19:39.214Z,79.02
2023-05-10T05:20:44.681Z,79.21
2023-05-10T05:21:47.861Z,78.11
2023-05-10T05:22:50.049Z,78.45
2023-05-10T05:23:53.506Z,78.40
2023-05-10T05:24:56.729Z,78.63
2023-05-10T05:26:02.807Z,78.79
2023-05-10T05:27:05.151Z,79.05
2023-05-10T05:28:08.714Z,78.37
2023-05-10T05:29:13.644Z,79.43
2023-05-10T05:30:17.263Z,79.65
2023-05-10T05:31:20.164Z,78.38
2023-05-10T05:32:23.812Z,78.77
2023-05-10T05:33:26.007Z,78.84
2023-05-10T05:34:29.266Z,79.09
2023-05-10T05:35:31.404Z,78.25
2023-05-10T05:36:37.054Z,79.31
2023-05-10T05:37:54.078Z,78.69
2023-05-10T05:38:57.807Z,78.87
2023-05-10T05:40:01.225Z,77.40
2023-05-10T05:41:08.553Z,78.25
2023-05-10T05:42:11.149Z,78.22
2023-05-10T05:43:14.648Z,78.23
2023-05-10T05:44:16.860Z,78.31
2023-05-10T05:45:20.640Z,78.35
2023-05-10T05:46:23.934Z,76.89
2023-05-10T05:47:26.544Z,77.50
2023-05-10T05:48:31.565Z,77.27
2023-05-10T05:49:35.166Z,77.29
2023-05-10T05:50:37.342Z,77.58
2023-05-10T05:51:40.498Z,77.90
2023-05-10T05:52:42.692Z,77.73
2023-05-10T05:53:46.230Z,77.60
2023-05-10T05:54:48.360Z,76.73
2023-05-10T05:55:55.552Z,77.46
2023-05-10T05:57:01.210Z,77.15
2023-05-10T05:58:05.227Z,76.37
2023-05-10T05:59:07.531Z,76.14
2023-05-10T06:00:11.350Z,76.41
2023-05-10T06:01:13.468Z,76.19
2023-05-10T06:02:16.764Z,76.48
2023-05-10T06:03:19.165Z,76.79
2023-05-10T06:04:22.575Z,75.91
2023-05-10T06:05:24.962Z,75.08
2023-05-10T06:06:28.787Z,75.51
2023-05-10T06:07:30.993Z,76.02
2023-05-10T06:08:35.003Z,75.60
2023-05-10T06:09:37.367Z,76.42
2023-05-10T06:10:40.562Z,76.01
2023-05-10T06:11:44.013Z,76.17
2023-05-10T06:12:48.705Z,76.39
2023-05-10T06:13:52.657Z,76.25
2023-05-10T06:14:55.822Z,75.49
2023-05-10T06:15:59.049Z,75.31
2023-05-10T06:17:01.339Z,74.94
2023-05-10T06:18:04.827Z,74.21
2023-05-10T06:19:07.164Z,73.95
2023-05-10T06:20:11.510Z,74.67
2023-05-10T06:21:14.705Z,74.37
2023-05-10T06:22:16.862Z,74.28
2023-05-10T06:23:20.130Z,74.36
2023-05-10T06:24:22.920Z,74.00
2023-05-10T06:25:26.172Z,74.76
2023-05-10T06:26:29.521Z,74.77
2023-05-10T06:27:32.789Z,73.10
2023-05-10T06:28:39.407Z,74.04
2023-05-10T06:29:42.661Z,73.66
2023-05-10T06:30:45.826Z,74.27
2023-05-10T06:31:49.250Z,73.74
2023-05-10T06:32:53.172Z,73.87
2023-05-10T06:33:56.884Z,73.77
2023-05-10T06:34:59.183Z,73.97
2023-05-10T06:36:03.096Z,74.24
2023-05-10T06:37:06.380Z,74.65
2023-05-10T06:38:08.585Z,74.42
2023-05-10T06:39:12.771Z,74.82
2023-05-10T06:40:15.515Z,74.52
2023-05-10T06:41:18.667Z,74.74
2023-05-10T06:42:20.898Z,73.87
2023-05-10T06:43:24.162Z,74.08
2023-05-10T06:44:28.804Z,73.62
2023-05-10T06:45:32.095Z,74.87
2023-05-10T06:46:34.288Z,74.78
2023-05-10T06:47:39.273Z,73.94
2023-05-10T06:48:42.715Z,72.51
2023-05-10T06:49:44.871Z,72.82
2023-05-10T06:50:48.020Z,72.03
2023-05-10T06:51:50.276Z,71.95
2023-05-10T06:52:53.560Z,72.54
2023-05-10T06:53:56.793Z,72.26
2023-05-10T06:54:58.981Z,72.86
2023-05-10T06:56:02.174Z,72.02
2023-05-10T06:57:08.802Z,71.05
2023-05-10T06:58:16.329Z,71.93
2023-05-10T06:59:20.306Z,72.48
2023-05-10T07:00:25.238Z,73.55
2023-05-10T07:01:28.537Z,72.74
2023-05-10T07:02:30.807Z,73.74
2023-05-10T07:03:34.149Z,72.98
2023-05-10T07:04:36.459Z,74.35
2023-05-10T07:05:39.905Z,72.06
2023-05-10T07:06:43.092Z,70.70
2023-05-10T07:07:45.379Z,69.94
2023-05-10T07:08:48.601Z,71.11
2023-05-10T07:09:51.083Z,71.09
2023-05-10T07:10:54.586Z,71.12
2023-05-10T07:11:58.335Z,70.86
2023-05-10T07:13:04.432Z,70.97
2023-05-10T07:14:07.767Z,68.26
2023-05-10T07:15:11.309Z,69.24
2023-05-10T07:16:16.051Z,69.00
2023-05-10T07:17:18.353Z,69.51
2023-05-10T07:18:22.577Z,68.13
2023-05-10T07:19:25.871Z,67.82
2023-05-10T07:20:29.445Z,68.52
2023-05-10T07:21:32.183Z,68.37
2023-05-10T07:22:37.781Z,67.38
2023-05-10T07:23:39.969Z,67.13
2023-05-10T07:24:45.440Z,66.96
2023-05-10T07:25:47.866Z,65.68
2023-05-10T07:26:51.099Z,65.53
2023-05-10T07:27:53.596Z,65.23
2023-05-10T07:28:57.032Z,65.01
2023-05-10T07:30:00.540Z,64.83
2023-05-10T07:31:03.346Z,64.40
2023-05-10T07:32:08.395Z,64.92
2023-05-10T07:33:11.446Z,63.81
2023-05-10T07:34:14.612Z,63.32
2023-05-10T07:35:17.201Z,62.40
2023-05-10T07:36:20.623Z,62.07
2023-05-10T07:37:22.725Z,63.32
2023-05-10T07:38:26.041Z,63.11
2023-05-10T07:39:28.513Z,63.87
2023-05-10T07:40:32.129Z,62.09
2023-05-10T07:41:36.476Z,62.43
2023-05-10T07:42:39.718Z,61.18
2023-05-10T07:43:41.893Z,61.49
2023-05-10T07:44:45.736Z,61.23
2023-05-10T07:45:48.013Z,60.35
2023-05-10T07:46:51.745Z,60.83
2023-05-10T07:47:56.680Z,60.52
2023-05-10T07:49:00.135Z,59.40
2023-05-10T07:50:02.669Z,59.42
2023-05-10T07:51:07.484Z,60.02
2023-05-10T07:52:09.678Z,60.17
2023-05-10T07:53:13.198Z,60.60
2023-05-10T07:54:16.420Z,62.59
2023-05-10T07:55:19.958Z,63.08
2023-05-10T07:56:26.262Z,63.34
2023-05-10T07:57:29.749Z,62.42
2023-05-10T07:58:35.221Z,61.63
2023-05-10T07:59:38.805Z,60.84
2023-05-10T08:00:43.023Z,60.10
2023-05-10T08:01:46.223Z,59.44
2023-05-10T08:02:49.815Z,59.95
2023-05-10T08:03:55.335Z,59.91
2023-05-10T08:04:57.541Z,58.92
2023-05-10T08:06:00.938Z,59.74
2023-05-10T08:07:03.133Z,60.60
2023-05-10T08:08:07.326Z,60.17
2023-05-10T08:09:12.511Z,60.13
2023-05-10T08:10:15.729Z,60.62
2023-05-10T08:11:18.513Z,59.65
2023-05-10T08:12:21.771Z,60.12
2023-05-10T08:13:23.987Z,58.84
2023-05-10T08:14:27.434Z,57.58
2023-05-10T08:15:30.639Z,58.98
2023-05-10T08:16:33.565Z,58.67
2023-05-10T08:17:37.025Z,58.99
2023-05-10T08:18:40.213Z,59.10
2023-05-10T08:19:45.159Z,59.50
2023-05-10T08:20:47.580Z,59.78
2023-05-10T08:21:51.274Z,59.05
2023-05-10T08:22:54.113Z,58.59
2023-05-10T08:23:57.524Z,57.88
2023-05-10T08:24:59.700Z,58.36
2023-05-10T08:26:02.942Z,56.59
2023-05-10T08:27:06.980Z,58.13
2023-05-10T08:28:11.979Z,57.50
2023-05-10T08:29:15.615Z,58.00
2023-05-10T08:30:18.754Z,57.76
2023-05-10T08:31:21.164Z,57.68
2023-05-10T08:32:24.348Z,59.15
2023-05-10T08:33:27.611Z,60.34
2023-05-10T08:34:29.792Z,59.88
2023-05-10T08:35:35.908Z,59.56
2023-05-10T08:36:39.133Z,60.40
2023-05-10T08:37:41.376Z,59.37
2023-05-10T08:38:44.762Z,57.61
2023-05-10T08:39:49.321Z,59.75
2023-05-10T08:40:57.652Z,58.12
2023-05-10T08:42:04.765Z,59.10
2023-05-10T08:43:08.194Z,59.31
2023-05-10T08:44:11.836Z,59.35
2023-05-10T08:45:16.932Z,58.91
2023-05-10T08:46:22.342Z,57.78
2023-05-10T08:47:24.914Z,59.04
2023-05-10T08:48:31.177Z,58.45
2023-05-10T08:49:34.011Z,59.23
2023-05-10T08:50:41.010Z,58.38
2023-05-10T08:51:47.860Z,58.22
2023-05-10T08:52:57.806Z,57.79
2023-05-10T08:54:00.732Z,57.22
2023-05-10T08:55:04.251Z,57.61
2023-05-10T08:56:07.411Z,56.81
2023-05-10T08:57:10.616Z,55.27
2023-05-10T08:58:13.729Z,56.25
2023-05-10T08:59:17.023Z,56.80
2023-05-10T09:00:21.768Z,56.53
2023-05-10T09:01:24.655Z,56.58
2023-05-10T09:02:28.850Z,56.61
2023-05-10T09:03:32.840Z,56.45
2023-05-10T09:04:35.241Z,56.19
2023-05-10T09:05:43.097Z,56.56
2023-05-10T09:06:45.298Z,55.97
2023-05-10T09:07:48.713Z,55.26
2023-05-10T09:08:51.187Z,54.60
2023-05-10T09:09:55.493Z,53.71
2023-05-10T09:10:57.916Z,54.82
2023-05-10T09:12:01.387Z,54.54
2023-05-10T09:13:04.366Z,52.87
2023-05-10T09:14:07.922Z,53.10
2023-05-10T09:15:12.311Z,53.69
2023-05-10T09:17:26.246Z,52.04
2023-05-10T09:18:28.496Z,54.10
2023-05-10T09:19:31.741Z,53.92
2023-05-10T09:20:34.163Z,53.32
2023-05-10T09:21:40.276Z,53.83
2023-05-10T09:22:42.522Z,52.73
2023-05-10T09:23:48.245Z,51.59
2023-05-10T09:25:06.237Z,51.35
2023-05-10T09:26:10.057Z,51.58
2023-05-10T09:27:12.669Z,52.31
2023-05-10T09:28:16.349Z,52.79
2023-05-10T09:29:18.857Z,51.54
2023-05-10T09:30:27.471Z,51.61
2023-05-10T09:31:47.383Z,51.55
2023-05-10T09:32:51.349Z,52.43
2023-05-10T09:33:56.241Z,52.07
2023-05-10T09:34:59.585Z,51.91
2023-05-10T09:36:09.776Z,51.11
2023-05-10T09:37:14.648Z,51.46
2023-05-10T09:38:16.843Z,51.32
2023-05-10T09:39:20.264Z,51.22
2023-05-10T09:40:25.101Z,51.03
2023-05-10T09:41:28.374Z,51.00
2023-05-10T09:42:30.967Z,50.37
2023-05-10T09:43:40.345Z,50.70
2023-05-10T09:44:44.472Z,50.06
2023-05-10T09:45:50.872Z,50.02
2023-05-10T09:46:56.519Z,49.52
2023-05-10T09:48:01.555Z,49.96
2023-05-10T09:49:03.784Z,50.12
2023-05-10T09:50:08.107Z,49.31
2023-05-10T09:51:10.456Z,47.78
2023-05-10T09:52:17.523Z,47.56
2023-05-10T09:53:20.733Z,47.20
2023-05-10T09:54:24.847Z,47.74
2023-05-10T09:55:41.403Z,47.65
2023-05-10T09:56:44.728Z,46.88
2023-05-10T09:57:48.360Z,47.21
2023-05-10T09:59:03.839Z,48.09
2023-05-10T10:00:08.437Z,47.13
2023-05-10T10:01:15.195Z,47.58
2023-05-10T10:02:21.058Z,47.80
2023-05-10T10:03:23.931Z,48.11
2023-05-10T10:04:28.486Z,48.81
2023-05-10T10:05:31.293Z,49.18
2023-05-10T10:06:39.073Z,49.98
2023-05-10T10:07:45.440Z,49.84
2023-05-10T10:08:47.801Z,49.85
2023-05-10T10:09:51.682Z,49.19
2023-05-10T10:10:54.955Z,48.61
2023-05-10T10:11:57.767Z,48.68
2023-05-10T10:13:01.843Z,49.02
2023-05-10T10:14:05.695Z,49.48
2023-05-10T10:15:10.618Z,49.71
2023-05-10T10:16:15.095Z,49.25
2023-05-10T10:17:18.829Z,49.37
2023-05-10T10:18:28.077Z,49.96
2023-05-10T10:19:35.142Z,49.47
2023-05-10T10:20:38.809Z,50.12
2023-05-10T10:21:42.049Z,49.59
2023-05-10T10:22:45.936Z,49.90
2023-05-10T10:23:49.827Z,49.68
2023-05-10T10:24:53.244Z,49.80
2023-05-10T10:25:56.439Z,49.33
2023-05-10T10:27:11.579Z,50.15
2023-05-10T10:28:28.291Z,50.28
2023-05-10T10:29:42.072Z,50.19
2023-05-10T10:30:48.608Z,51.17
2023-05-10T10:31:59.835Z,50.53
2023-05-10T10:33:36.040Z,50.83
2023-05-10T10:34:41.611Z,51.71
2023-05-10T10:35:46.711Z,52.61
2023-05-10T10:36:50.353Z,52.79
2023-05-10T10:37:53.985Z,53.37
2023-05-10T10:39:00.675Z,54.02
2023-05-10T10:40:27.974Z,53.67
2023-05-10T10:41:33.871Z,53.01
2023-05-10T10:42:50.961Z,53.67
2023-05-10T10:44:25.565Z,54.45
2023-05-10T10:45:28.767Z,55.87
2023-05-10T10:46:31.040Z,55.87
2023-05-10T10:47:34.637Z,56.20
2023-05-10T10:48:37.233Z,56.96
2023-05-10T10:49:45.002Z,56.49
2023-05-10T10:50:48.660Z,56.44
2023-05-10T10:52:15.405Z,55.82
2023-05-10T10:53:20.738Z,55.44
2023-05-10T10:54:29.655Z,56.30
2023-05-10T10:55:33.406Z,56.35
2023-05-10T10:56:37.121Z,56.47
2023-05-10T10:57:48.523Z,54.86
2023-05-10T10:58:52.376Z,55.03
2023-05-10T11:00:23.569Z,54.74
2023-05-10T11:01:35.437Z,54.21
2023-05-10T11:02:47.197Z,55.24
2023-05-10T11:04:22.769Z,54.41
2023-05-10T11:05:47.258Z,53.68
2023-05-10T11:06:49.367Z,53.94
2023-05-10T11:07:56.994Z,54.39
2023-05-10T11:09:02.387Z,52.26
2023-05-10T11:10:06.170Z,52.91
2023-05-10T11:11:10.103Z,52.80
2023-05-10T11:12:12.371Z,52.32
2023-05-10T11:13:15.612Z,52.15
2023-05-10T11:14:22.507Z,50.70
2023-05-10T11:15:32.008Z,50.49
2023-05-10T11:16:43.788Z,50.45
2023-05-10T11:17:48.445Z,49.56
2023-05-10T11:19:11.696Z,48.73
2023-05-10T11:20:16.702Z,49.01
2023-05-10T11:21:20.126Z,48.66
2023-05-10T11:22:23.354Z,50.11
2023-05-10T11:23:30.793Z,49.96
2023-05-10T11:24:36.831Z,51.12
2023-05-10T11:25:44.206Z,51.53
2023-05-10T11:26:47.944Z,51.35
2023-05-10T11:27:50.093Z,52.39
2023-05-10T11:28:56.095Z,52.60
2023-05-10T11:29:58.441Z,52.70
2023-05-10T11:31:01.867Z,52.44
2023-05-10T11:32:09.228Z,52.88
2023-05-10T11:33:17.929Z,52.16
2023-05-10T11:34:31.757Z,52.05
2023-05-10T11:35:42.486Z,52.28
2023-05-10T11:36:55.336Z,52.31
2023-05-10T11:37:57.616Z,52.30
2023-05-10T11:39:00.884Z,52.70
2023-05-10T11:40:06.123Z,53.20
2023-05-10T11:41:11.075Z,52.49
2023-05-10T11:42:14.743Z,51.66
2023-05-10T11:43:17.162Z,52.07
2023-05-10T11:44:20.730Z,52.07
2023-05-10T11:45:25.435Z,51.71
2023-05-10T11:46:30.070Z,51.24
2023-05-10T11:47:34.649Z,51.29
2023-05-10T11:48:39.399Z,51.88
2023-05-10T11:49:46.047Z,52.12
2023-05-10T11:50:49.305Z,52.34
2023-05-10T11:51:52.507Z,54.63
2023-05-10T11:52:56.592Z,55.61
2023-05-10T11:53:59.841Z,54.83
2023-05-10T11:55:02.087Z,55.51
2023-05-10T11:56:07.978Z,55.79
2023-05-10T11:57:12.441Z,55.35
2023-05-10T11:58:15.911Z,55.17
2023-05-10T11:59:19.120Z,55.03
2023-05-10T12:00:24.172Z,53.63
2023-05-10T12:01:29.464Z,54.58
2023-05-10T12:02:32.471Z,54.65
2023-05-10T12:03:36.672Z,54.92
2023-05-10T12:04:40.862Z,55.00
2023-05-10T12:05:44.178Z,55.96
2023-05-10T12:06:47.878Z,55.17
2023-05-10T12:07:51.534Z,55.41
2023-05-10T12:08:54.839Z,55.75
2023-05-10T12:10:13.493Z,53.86
2023-05-10T12:11:19.762Z,55.21
2023-05-10T12:12:22.009Z,54.90
2023-05-10T12:13:25.513Z,53.35
2023-05-10T12:14:27.612Z,52.95
2023-05-10T12:15:31.065Z,54.14
2023-05-10T12:16:33.364Z,54.76
2023-05-10T12:17:41.963Z,54.50
2023-05-10T12:18:47.409Z,54.55
2023-05-10T12:19:49.830Z,55.18
2023-05-10T12:20:57.245Z,54.99
2023-05-10T12:22:01.145Z,56.02
2023-05-10T12:23:05.022Z,56.54
2023-05-10T12:24:08.726Z,56.84
2023-05-10T12:25:14.650Z,57.15
2023-05-10T12:26:19.775Z,57.14
2023-05-10T12:27:22.306Z,56.01
2023-05-10T12:28:28.565Z,57.02
2023-05-10T12:29:31.777Z,57.30
2023-05-10T12:30:36.700Z,57.25
2023-05-10T12:31:51.885Z,58.42
2023-05-10T12:32:55.071Z,57.49
2023-05-10T12:33:58.496Z,57.44
2023-05-10T12:35:01.009Z,56.99
2023-05-10T12:36:05.162Z,57.26
2023-05-10T12:37:08.556Z,57.76
2023-05-10T12:38:26.292Z,56.37
2023-05-10T12:39:40.922Z,55.75
2023-05-10T12:40:44.395Z,55.37
2023-05-10T12:41:49.670Z,57.29
2023-05-10T12:42:53.216Z,58.74
2023-05-10T12:43:55.468Z,59.42
2023-05-10T12:44:59.239Z,60.83
2023-05-10T12:46:07.584Z,60.89
2023-05-10T12:47:09.755Z,61.30
2023-05-10T12:48:13.202Z,60.74
2023-05-10T12:49:15.734Z,61.76
2023-05-10T12:50:19.313Z,61.40
2023-05-10T12:51:23.364Z,61.87
2023-05-10T12:52:27.098Z,60.99
2023-05-10T12:53:29.514Z,59.80
2023-05-10T12:54:32.904Z,60.00
2023-05-10T12:55:35.047Z,60.17
2023-05-10T12:56:38.849Z,60.42
2023-05-10T12:57:43.806Z,59.67
2023-05-10T12:58:49.588Z,59.57
2023-05-10T12:59:52.864Z,60.26
2023-05-10T13:00:57.465Z,60.57
2023-05-10T13:02:00.701Z,61.35
2023-05-10T13:03:03.272Z,61.92
2023-05-10T13:04:09.165Z,61.37
2023-05-10T13:05:14.223Z,62.03
2023-05-10T13:06:19.657Z,62.81
2023-05-10T13:07:21.810Z,62.83
2023-05-10T13:08:25.513Z,63.18
2023-05-10T13:09:28.108Z,63.90
2023-05-10T13:10:32.476Z,63.90
2023-05-10T13:11:35.802Z,62.80
2023-05-10T13:12:50.337Z,62.24
2023-05-10T13:13:55.063Z,63.04
2023-05-10T13:14:58.527Z,62.50
2023-05-10T13:16:00.850Z,62.86
2023-05-10T13:17:06.362Z,64.00
2023-05-10T13:18:09.666Z,63.64
2023-05-10T13:19:12.622Z,62.61
2023-05-10T13:20:16.141Z,63.97
2023-05-10T13:21:18.527Z,64.11
2023-05-10T13:22:32.365Z,64.06
2023-05-10T13:23:39.078Z,63.18
2023-05-10T13:24:43.420Z,62.27
2023-05-10T13:25:45.684Z,62.04
2023-05-10T13:26:49.497Z,61.93
2023-05-10T13:27:52.683Z,62.15
2023-05-10T13:28:57.015Z,62.39
2023-05-10T13:30:00.510Z,62.40
2023-05-10T13:31:03.798Z,61.98
2023-05-10T13:32:07.518Z,61.80
2023-05-10T13:33:11.113Z,61.76
2023-05-10T13:34:15.854Z,61.95
2023-05-10T13:35:19.093Z,61.23
2023-05-10T13:36:21.508Z,61.07
2023-05-10T13:37:24.696Z,61.16
2023-05-10T13:38:27.326Z,61.63
2023-05-10T13:39:34.361Z,62.09
2023-05-10T13:40:37.850Z,61.62
2023-05-10T13:41:43.296Z,61.70
2023-05-10T13:42:47.925Z,61.10
2023-05-10T13:43:51.386Z,61.96
2023-05-10T13:44:56.228Z,62.25
2023-05-10T13:45:58.702Z,62.90
2023-05-10T13:47:02.152Z,62.57
2023-05-10T13:48:05.510Z,62.54
2023-05-10T13:49:08.810Z,62.22
2023-05-10T13:50:11.517Z,62.58
2023-05-10T13:51:18.096Z,61.98
2023-05-10T13:52:20.331Z,61.92
2023-05-10T13:53:23.579Z,62.14
2023-05-10T13:54:28.998Z,61.67
2023-05-10T13:55:37.162Z,61.91
2023-05-10T13:56:39.378Z,61.72
2023-05-10T13:57:42.715Z,62.04